Terminal Aerodrome Forecast
Issued by NWS

Home | Current Version | Previous Version | Text Only | Print | Product List | Glossary On
Versions: 1 2 3 4 5 6 7 8 9 10 11 12 13 14 15 16
000
FTUS43 KLSX 171100
TAFUIN
TAF
KUIN 171137Z 1712/1812 29008KT P6SM BKN015 BKN120
      TEMPO 1712/1713 SCT015
     FM171700 29007KT P6SM SCT030 BKN120
     FM180400 34005KT P6SM BKN080=

USA.gov is the U.S. government's official web portal to all federal, state and local government web resources and services.